Time;durP1;ratioP1;P1;durP2;ratioP2;P2;SDS_P1;SDS_P2;PMS_P1;PMS_P2;Temp;Humidity;BMP_temperature;BMP_pressure;BME280_temperature;BME280_humidity;BME280_pressure;Samples;Min_cycle;Max_cycle;Signal;HPM_P1;HPM_P2
2023/07/06 00:00:31;;;;;;;5.33;4.33;;;13.80;99.90;;;;;;5073864;28;20458;-57
2023/07/06 00:02:58;;;;;;;5.33;3.93;;;13.80;99.90;;;;;;5073458;28;20447;-56
2023/07/06 00:05:27;;;;;;;4.93;3.60;;;13.70;99.90;;;;;;5073198;28;20847;-56
2023/07/06 00:07:53;;;;;;;6.60;4.03;;;13.70;99.90;;;;;;5072932;28;20941;-57
2023/07/06 00:10:20;;;;;;;5.07;4.50;;;13.70;99.90;;;;;;5073142;28;20905;-58
2023/07/06 00:12:47;;;;;;;4.03;3.57;;;13.70;99.90;;;;;;5073232;28;20528;-57
2023/07/06 00:15:14;;;;;;;5.40;4.50;;;13.70;99.90;;;;;;5072969;28;20807;-58
2023/07/06 00:17:40;;;;;;;4.50;4.10;;;13.70;99.90;;;;;;5072964;28;21023;-58
2023/07/06 00:20:10;;;;;;;4.70;4.13;;;13.70;99.90;;;;;;5073118;28;20451;-56
2023/07/06 00:22:38;;;;;;;4.23;3.83;;;13.70;99.90;;;;;;5073358;28;20467;-57
2023/07/06 00:25:07;;;;;;;3.87;3.47;;;13.70;99.90;;;;;;5073767;28;20451;-57
2023/07/06 00:27:34;;;;;;;3.73;3.30;;;13.80;99.90;;;;;;5075512;28;20447;-58
2023/07/06 00:30:15;;;;;;;3.70;3.30;;;13.90;99.90;;;;;;5077298;28;20990;-58
2023/07/06 00:32:42;;;;;;;4.67;4.20;;;13.90;99.90;;;;;;5077528;28;20558;-58
2023/07/06 00:35:10;;;;;;;4.10;2.80;;;14.00;99.90;;;;;;5077222;28;20443;-57
2023/07/06 00:37:38;;;;;;;3.60;3.30;;;14.10;99.90;;;;;;5077363;28;20557;-56
2023/07/06 00:40:09;;;;;;;5.10;3.03;;;14.20;99.90;;;;;;5077047;28;20862;-57
2023/07/06 00:42:36;;;;;;;3.80;3.50;;;14.20;99.90;;;;;;5076886;28;20477;-56
2023/07/06 00:45:04;;;;;;;4.50;3.47;;;14.30;99.90;;;;;;5077077;28;20492;-56
2023/07/06 00:47:34;;;;;;;3.37;3.13;;;14.30;99.90;;;;;;5077077;28;20446;-58
2023/07/06 00:50:07;;;;;;;3.83;3.50;;;14.40;99.90;;;;;;5076966;28;20434;-57
2023/07/06 00:52:36;;;;;;;3.83;3.23;;;14.40;99.90;;;;;;5076719;28;20498;-57
2023/07/06 00:55:06;;;;;;;4.10;3.33;;;14.40;99.90;;;;;;5076681;28;20451;-58
2023/07/06 00:57:35;;;;;;;4.10;3.23;;;14.50;99.90;;;;;;5076493;28;20872;-58
2023/07/06 01:00:06;;;;;;;3.77;3.00;;;14.50;99.90;;;;;;5076631;28;20443;-57
2023/07/06 01:02:40;;;;;;;2.87;2.67;;;14.50;99.90;;;;;;5076511;28;20459;-58
2023/07/06 01:05:08;;;;;;;3.93;3.23;;;14.60;99.90;;;;;;5076468;28;20438;-56
2023/07/06 01:07:37;;;;;;;5.27;4.00;;;14.60;99.90;;;;;;5076522;28;20448;-56
2023/07/06 01:10:08;;;;;;;4.17;3.30;;;14.60;99.90;;;;;;5076897;28;20455;-57
2023/07/06 01:12:36;;;;;;;4.03;3.63;;;14.60;99.90;;;;;;5076512;28;20470;-57
2023/07/06 01:15:03;;;;;;;3.17;2.87;;;14.60;99.90;;;;;;5076518;28;20864;-57
2023/07/06 01:17:38;;;;;;;5.13;3.30;;;14.70;99.90;;;;;;5076177;28;20479;-58
2023/07/06 01:20:15;;;;;;;5.50;3.60;;;14.70;99.90;;;;;;5076170;28;20438;-58
2023/07/06 01:23:13;;;;;;;3.93;3.53;;;14.70;99.90;;;;;;5076281;28;20470;-57
2023/07/06 01:26:00;;;;;;;3.77;3.30;;;14.70;99.90;;;;;;5076187;28;20799;-57
2023/07/06 01:29:03;;;;;;;5.80;3.80;;;14.70;99.90;;;;;;5076302;28;20420;-58
2023/07/06 01:31:36;;;;;;;3.90;3.20;;;14.70;99.90;;;;;;5076196;28;20489;-56
2023/07/06 01:34:12;;;;;;;4.47;3.57;;;14.70;99.90;;;;;;5076479;28;20446;-58
2023/07/06 01:36:44;;;;;;;6.60;3.93;;;14.70;99.90;;;;;;5076396;28;20463;-55
2023/07/06 01:39:15;;;;;;;3.67;3.30;;;14.70;99.90;;;;;;5075329;28;20431;-57
2023/07/06 01:41:42;;;;;;;4.33;3.93;;;14.70;99.90;;;;;;5075837;28;20582;-57
2023/07/06 01:44:12;;;;;;;3.70;3.30;;;14.70;99.90;;;;;;5075632;28;20455;-56
2023/07/06 01:46:46;;;;;;;3.73;3.37;;;14.70;99.90;;;;;;5076012;28;20473;-57
2023/07/06 01:49:13;;;;;;;4.20;3.67;;;14.70;99.90;;;;;;5075733;28;20898;-57
2023/07/06 01:51:49;;;;;;;3.83;3.53;;;14.70;99.90;;;;;;5076421;28;20463;-56
2023/07/06 01:54:21;;;;;;;4.20;3.80;;;14.70;99.90;;;;;;5077965;28;20427;-58
2023/07/06 01:56:52;;;;;;;4.50;4.10;;;14.70;99.90;;;;;;5077202;28;20470;-55
2023/07/06 01:59:22;;;;;;;4.17;3.77;;;14.70;99.90;;;;;;5078071;28;20447;-57
2023/07/06 02:02:00;;;;;;;4.17;3.83;;;14.70;99.90;;;;;;5079410;28;20474;-58
2023/07/06 02:04:28;;;;;;;6.50;4.00;;;14.70;99.90;;;;;;5080774;28;20432;-56
2023/07/06 02:06:55;;;;;;;4.37;3.97;;;14.70;99.90;;;;;;5080643;28;20465;-55
2023/07/06 02:09:22;;;;;;;4.00;3.60;;;14.70;99.90;;;;;;5081674;28;20443;-56
2023/07/06 02:11:51;;;;;;;7.33;4.23;;;14.70;99.90;;;;;;5079021;28;20509;-58
2023/07/06 02:14:19;;;;;;;7.97;4.20;;;14.70;99.90;;;;;;5078053;28;20451;-57
2023/07/06 02:16:45;;;;;;;4.90;4.50;;;14.70;99.90;;;;;;5077806;28;20479;-59
2023/07/06 02:19:14;;;;;;;5.10;4.60;;;14.60;99.90;;;;;;5079603;28;20454;-58
2023/07/06 02:21:40;;;;;;;5.30;4.80;;;14.60;99.90;;;;;;5077931;28;20489;-57
2023/07/06 02:24:09;;;;;;;5.70;4.90;;;14.60;99.90;;;;;;5075657;28;20443;-57
2023/07/06 02:26:36;;;;;;;5.60;4.80;;;14.60;99.90;;;;;;5075400;28;20451;-56
2023/07/06 02:29:03;;;;;;;7.23;4.90;;;14.60;99.90;;;;;;5075293;28;20447;-57
2023/07/06 02:31:29;;;;;;;5.67;4.60;;;14.50;99.90;;;;;;5075236;28;20467;-56
2023/07/06 02:33:56;;;;;;;5.80;5.27;;;14.50;99.90;;;;;;5075094;28;20449;-57
2023/07/06 02:36:24;;;;;;;8.80;5.23;;;14.50;99.90;;;;;;5075105;28;20774;-55
2023/07/06 02:38:51;;;;;;;5.90;4.90;;;14.50;99.90;;;;;;5074655;28;20483;-55
2023/07/06 02:41:18;;;;;;;5.70;5.20;;;14.40;99.90;;;;;;5074681;28;20471;-57
2023/07/06 02:43:45;;;;;;;6.00;5.03;;;14.40;99.90;;;;;;5074763;28;20502;-57
2023/07/06 02:46:19;;;;;;;5.77;5.17;;;14.40;99.90;;;;;;5074510;28;20963;-57
2023/07/06 02:48:46;;;;;;;7.83;4.70;;;14.30;99.90;;;;;;5074694;28;20431;-57
2023/07/06 02:51:13;;;;;;;5.00;4.50;;;14.30;99.90;;;;;;5073440;28;20459;-57
2023/07/06 02:53:41;;;;;;;9.37;4.90;;;14.20;99.90;;;;;;5074620;28;20454;-56
2023/07/06 02:56:08;;;;;;;5.83;5.20;;;14.10;99.90;;;;;;5074428;28;20486;-58
2023/07/06 02:58:35;;;;;;;6.57;5.00;;;14.10;99.90;;;;;;5074326;28;20851;-57
2023/07/06 03:01:03;;;;;;;5.70;4.83;;;14.00;99.90;;;;;;5075364;28;20806;-57
2023/07/06 03:03:30;;;;;;;4.97;4.30;;;13.90;99.90;;;;;;5074597;28;20513;-58
2023/07/06 03:06:01;;;;;;;6.43;4.77;;;13.90;99.90;;;;;;5074193;28;20468;-58
2023/07/06 03:08:28;;;;;;;6.10;4.70;;;13.80;99.90;;;;;;5074534;28;20514;-57
2023/07/06 03:10:56;;;;;;;6.20;5.00;;;13.80;99.90;;;;;;5074342;28;20467;-58
2023/07/06 03:13:25;;;;;;;5.70;5.00;;;13.70;99.90;;;;;;5074352;28;20534;-57
2023/07/06 03:15:52;;;;;;;4.67;4.17;;;13.70;99.90;;;;;;5074328;28;20447;-58
2023/07/06 03:18:19;;;;;;;5.83;4.90;;;13.70;99.90;;;;;;5074143;28;20486;-57
2023/07/06 03:20:48;;;;;;;6.13;5.30;;;13.70;99.90;;;;;;5074033;28;20463;-58
2023/07/06 03:23:14;;;;;;;5.67;5.13;;;13.70;99.90;;;;;;5074391;28;20483;-57
2023/07/06 03:25:41;;;;;;;5.33;4.83;;;13.60;99.90;;;;;;5074029;28;20439;-56
2023/07/06 03:28:09;;;;;;;6.53;5.70;;;13.60;99.90;;;;;;5074018;28;20451;-56
2023/07/06 03:30:36;;;;;;;6.53;5.93;;;13.60;99.90;;;;;;5073842;28;20518;-56
2023/07/06 03:33:03;;;;;;;7.63;5.80;;;13.60;99.90;;;;;;5073534;28;20447;-57
2023/07/06 03:35:30;;;;;;;7.63;6.00;;;13.60;99.90;;;;;;5073720;28;20445;-56
2023/07/06 03:37:58;;;;;;;10.30;6.30;;;13.60;99.90;;;;;;5073429;28;20475;-56
2023/07/06 03:40:29;;;;;;;8.30;6.33;;;13.60;99.90;;;;;;5073686;28;20442;-57
2023/07/06 03:42:56;;;;;;;9.10;6.80;;;13.60;99.90;;;;;;5073498;28;20916;-56
2023/07/06 03:45:24;;;;;;;7.83;7.03;;;13.60;99.90;;;;;;5073637;28;20462;-56
2023/07/06 03:47:51;;;;;;;8.47;7.63;;;13.70;99.90;;;;;;5073942;28;20439;-57
2023/07/06 03:50:20;;;;;;;13.47;9.73;;;13.70;99.90;;;;;;5073648;28;20546;-56
2023/07/06 03:52:48;;;;;;;10.77;7.47;;;13.70;99.90;;;;;;5073645;28;20482;-56
2023/07/06 03:55:19;;;;;;;9.90;8.90;;;13.80;99.90;;;;;;5076052;28;20443;-57
2023/07/06 03:57:47;;;;;;;11.60;10.27;;;13.80;99.90;;;;;;5076424;28;20471;-56
2023/07/06 04:00:19;;;;;;;11.00;9.57;;;14.00;99.90;;;;;;5077957;28;20443;-54
2023/07/06 04:02:47;;;;;;;11.27;9.20;;;14.30;99.90;;;;;;5072851;28;20529;-56
2023/07/06 04:05:16;;;;;;;10.77;9.67;;;14.70;99.90;;;;;;5073903;28;20844;-57
2023/07/06 04:07:43;;;;;;;10.23;9.07;;;15.20;99.90;;;;;;5073383;28;20470;-58
2023/07/06 04:11:56;;;;;;;11.27;8.47;;;15.90;99.90;;;;;;5112049;27;20680;-56
2023/07/06 04:14:25;;;;;;;9.30;8.40;;;16.30;99.90;;;;;;5111323;28;20448;-56
2023/07/06 04:16:52;;;;;;;10.63;9.63;;;16.70;99.90;;;;;;5111149;28;20449;-58
2023/07/06 04:19:19;;;;;;;11.27;9.37;;;17.00;99.90;;;;;;5111013;28;20449;-57
2023/07/06 04:21:45;;;;;;;11.97;8.23;;;17.30;99.90;;;;;;5111505;28;20470;-57
2023/07/06 04:24:12;;;;;;;11.93;9.93;;;17.50;99.90;;;;;;5111210;28;20448;-57
2023/07/06 04:26:41;;;;;;;9.70;8.70;;;17.80;99.90;;;;;;5111095;28;20446;-59
2023/07/06 04:29:09;;;;;;;11.83;8.40;;;17.90;99.90;;;;;;5110849;28;20824;-57
2023/07/06 04:31:36;;;;;;;10.10;9.10;;;18.10;99.90;;;;;;5111296;28;20516;-57
2023/07/06 04:34:04;;;;;;;8.90;8.00;;;18.20;99.90;;;;;;5110696;28;20954;-58
2023/07/06 04:36:31;;;;;;;9.50;8.67;;;18.40;99.90;;;;;;5110571;28;20931;-58
2023/07/06 04:38:59;;;;;;;9.20;8.17;;;18.60;99.90;;;;;;5110583;28;20939;-58
2023/07/06 04:41:26;;;;;;;8.87;7.90;;;18.80;99.90;;;;;;5111381;28;20454;-58
2023/07/06 04:43:53;;;;;;;10.17;8.77;;;19.00;99.90;;;;;;5110865;28;20465;-56
2023/07/06 04:46:21;;;;;;;7.70;6.90;;;19.10;99.30;;;;;;5110706;28;20815;-58
2023/07/06 04:48:48;;;;;;;7.67;6.77;;;19.30;98.20;;;;;;5110524;28;20442;-58
2023/07/06 04:51:17;;;;;;;8.27;7.53;;;19.30;97.30;;;;;;5110329;28;20485;-58
2023/07/06 04:53:44;;;;;;;7.30;6.70;;;19.40;96.50;;;;;;5110377;28;20451;-58
2023/07/06 04:56:11;;;;;;;7.20;6.60;;;19.50;95.60;;;;;;5110452;28;20509;-59
2023/07/06 04:58:38;;;;;;;7.80;7.00;;;19.50;94.50;;;;;;5109775;28;20955;-58
2023/07/06 05:01:07;;;;;;;6.97;6.30;;;19.50;93.80;;;;;;5109657;28;20467;-59
2023/07/06 05:03:35;;;;;;;6.60;6.00;;;19.60;93.30;;;;;;5110647;28;20485;-59
2023/07/06 05:06:05;;;;;;;8.37;7.03;;;19.70;92.30;;;;;;5110046;28;20448;-59
2023/07/06 05:08:33;;;;;;;6.60;6.00;;;19.80;91.50;;;;;;5110466;28;20565;-59
2023/07/06 05:11:03;;;;;;;9.80;6.50;;;19.80;90.80;;;;;;5109573;28;20493;-59
2023/07/06 05:13:30;;;;;;;5.70;5.10;;;19.90;90.10;;;;;;5109774;28;20898;-59
2023/07/06 05:15:57;;;;;;;5.30;4.80;;;19.90;89.20;;;;;;5109832;28;20449;-60
2023/07/06 05:18:24;;;;;;;7.47;5.97;;;19.90;88.40;;;;;;5109758;28;20532;-60
2023/07/06 05:20:57;;;;;;;6.73;5.10;;;20.00;87.00;;;;;;5109503;28;20944;-59
2023/07/06 05:23:25;;;;;;;5.60;5.10;;;20.10;85.70;;;;;;5095388;28;20434;-60
2023/07/06 05:25:52;;;;;;;5.33;4.83;;;20.30;84.70;;;;;;5095730;28;20933;-58
2023/07/06 05:28:20;;;;;;;7.87;5.37;;;20.30;84.10;;;;;;5095941;28;20967;-59
2023/07/06 05:30:48;;;;;;;7.57;4.57;;;20.40;82.20;;;;;;5095811;28;20482;-59
2023/07/06 05:33:15;;;;;;;5.20;4.73;;;20.50;81.30;;;;;;5097521;28;20478;-59
2023/07/06 05:35:42;;;;;;;4.60;4.23;;;20.50;80.70;;;;;;5095802;28;20443;-59
2023/07/06 05:38:11;;;;;;;6.13;4.60;;;20.60;79.70;;;;;;5095961;28;20452;-58
2023/07/06 05:40:39;;;;;;;4.90;4.40;;;20.60;79.20;;;;;;5095744;28;20802;-60
2023/07/06 05:43:05;;;;;;;5.10;4.10;;;20.60;78.50;;;;;;5097002;28;20470;-59
2023/07/06 05:45:32;;;;;;;7.00;4.33;;;20.60;78.00;;;;;;5096188;28;20445;-59
2023/07/06 05:47:59;;;;;;;5.33;4.03;;;20.60;77.20;;;;;;5096158;28;20449;-58
2023/07/06 05:50:26;;;;;;;4.97;4.17;;;20.60;77.00;;;;;;5095574;28;20846;-59
2023/07/06 05:52:53;;;;;;;5.80;4.23;;;20.60;76.40;;;;;;5095432;28;20449;-60
2023/07/06 05:55:21;;;;;;;11.20;5.17;;;20.60;75.90;;;;;;5095660;28;20451;-58
2023/07/06 05:57:50;;;;;;;4.37;3.97;;;20.50;75.70;;;;;;5096231;28;20442;-59
2023/07/06 06:00:18;;;;;;;6.87;3.83;;;20.40;75.70;;;;;;5096533;28;20501;-58
2023/07/06 06:02:45;;;;;;;6.53;3.63;;;20.40;75.70;;;;;;5095265;28;20472;-60
2023/07/06 06:05:13;;;;;;;6.60;3.87;;;20.20;75.00;;;;;;5095290;28;20524;-60
2023/07/06 06:07:40;;;;;;;5.53;3.40;;;20.10;75.70;;;;;;5095340;28;20455;-59
2023/07/06 06:10:08;;;;;;;4.87;4.30;;;20.10;75.90;;;;;;5095272;28;20458;-58
2023/07/06 06:12:36;;;;;;;4.67;3.50;;;20.00;76.00;;;;;;5095555;28;20471;-59
2023/07/06 06:15:04;;;;;;;3.70;2.90;;;20.00;76.00;;;;;;5095711;28;20450;-59
2023/07/06 06:17:31;;;;;;;4.30;3.00;;;20.10;75.90;;;;;;5096057;28;20435;-60
2023/07/06 06:19:58;;;;;;;6.40;4.00;;;20.10;75.80;;;;;;5095392;28;20459;-59
2023/07/06 06:22:25;;;;;;;6.17;3.70;;;20.10;75.40;;;;;;5095444;28;20474;-61
2023/07/06 06:24:52;;;;;;;4.93;3.60;;;19.90;75.40;;;;;;5095279;28;20457;-60
2023/07/06 06:27:19;;;;;;;6.07;3.87;;;19.80;75.80;;;;;;5095925;28;20453;-58
2023/07/06 06:29:48;;;;;;;6.23;4.40;;;19.60;76.10;;;;;;5095539;28;20446;-58
2023/07/06 06:32:15;;;;;;;5.60;4.50;;;19.40;75.90;;;;;;5094911;28;20499;-58
2023/07/06 06:34:42;;;;;;;9.50;4.97;;;19.20;76.80;;;;;;5093971;28;20448;-59
2023/07/06 06:37:09;;;;;;;7.13;5.53;;;19.10;77.30;;;;;;5094757;28;20439;-57
2023/07/06 06:39:37;;;;;;;5.90;4.80;;;19.00;78.40;;;;;;5095181;28;20479;-58
2023/07/06 06:42:04;;;;;;;6.03;4.90;;;19.10;78.00;;;;;;5095175;28;20464;-59
2023/07/06 06:44:31;;;;;;;5.17;4.67;;;19.20;77.70;;;;;;5094633;28;20456;-59
2023/07/06 06:47:03;;;;;;;6.47;5.87;;;19.20;77.40;;;;;;5094908;28;20443;-59
2023/07/06 06:49:30;;;;;;;7.67;4.83;;;19.20;77.60;;;;;;5094957;28;20514;-59
2023/07/06 06:51:57;;;;;;;6.67;5.27;;;19.30;77.60;;;;;;5094363;28;20482;-58
2023/07/06 06:54:24;;;;;;;6.40;5.20;;;19.30;77.30;;;;;;5094924;28;20443;-59
2023/07/06 06:56:51;;;;;;;9.60;5.43;;;19.50;77.50;;;;;;5094724;28;20447;-59
2023/07/06 06:59:18;;;;;;;6.70;5.50;;;19.60;77.40;;;;;;5094466;28;20446;-58
2023/07/06 07:01:46;;;;;;;7.27;4.83;;;19.70;76.90;;;;;;5094567;28;20458;-58
2023/07/06 07:04:14;;;;;;;6.73;4.90;;;19.80;76.60;;;;;;5093979;28;20515;-59
2023/07/06 07:06:40;;;;;;;5.73;4.77;;;19.80;76.30;;;;;;5094603;28;20442;-59
2023/07/06 07:09:09;;;;;;;6.10;5.10;;;19.80;76.10;;;;;;5095754;28;20537;-59
2023/07/06 07:11:36;;;;;;;5.03;4.53;;;19.80;76.90;;;;;;5094664;28;20494;-58
2023/07/06 07:14:03;;;;;;;7.13;4.20;;;19.90;76.50;;;;;;5094950;28;20444;-58
2023/07/06 07:16:30;;;;;;;8.27;4.60;;;20.10;76.00;;;;;;5095161;28;20442;-57
2023/07/06 07:18:57;;;;;;;5.40;4.00;;;20.20;74.80;;;;;;5095321;28;20463;-58
2023/07/06 07:21:25;;;;;;;5.00;4.00;;;20.30;74.10;;;;;;5094707;28;20469;-56
2023/07/06 07:23:52;;;;;;;6.33;3.70;;;20.30;73.60;;;;;;5094763;28;20446;-59
2023/07/06 07:26:21;;;;;;;5.30;4.10;;;20.20;72.80;;;;;;5094976;28;20452;-58
2023/07/06 07:28:50;;;;;;;5.70;3.77;;;20.30;72.90;;;;;;5094141;28;20937;-58
2023/07/06 07:31:18;;;;;;;4.43;3.60;;;20.50;72.20;;;;;;5094000;28;20483;-58
2023/07/06 07:33:46;;;;;;;6.67;3.50;;;20.70;70.80;;;;;;5093666;28;20446;-58
2023/07/06 07:36:16;;;;;;;5.10;3.50;;;20.90;69.90;;;;;;5093409;28;20462;-58
2023/07/06 07:38:45;;;;;;;4.67;3.40;;;21.00;68.50;;;;;;5093223;28;20432;-58
2023/07/06 07:41:13;;;;;;;4.13;2.77;;;21.10;67.40;;;;;;5093777;28;20467;-59
2023/07/06 07:43:41;;;;;;;4.53;3.30;;;20.90;66.60;;;;;;5093385;28;20820;-57
2023/07/06 07:46:10;;;;;;;5.00;3.40;;;20.70;66.70;;;;;;5093664;28;20488;-58
2023/07/06 07:48:44;;;;;;;4.50;2.87;;;20.60;66.50;;;;;;5094133;28;20950;-59
2023/07/06 07:51:13;;;;;;;4.80;2.90;;;20.50;66.40;;;;;;5093766;28;20996;-58
2023/07/06 07:53:40;;;;;;;3.10;2.80;;;20.50;65.70;;;;;;5093027;28;20443;-59
2023/07/06 07:56:09;;;;;;;3.87;3.33;;;20.30;65.00;;;;;;5093294;28;20941;-58
2023/07/06 07:58:39;;;;;;;8.90;3.70;;;20.30;65.40;;;;;;5093467;28;20442;-58
2023/07/06 08:01:08;;;;;;;3.77;2.70;;;20.30;65.30;;;;;;5093659;28;20497;-58
2023/07/06 08:03:36;;;;;;;3.07;2.77;;;20.40;65.00;;;;;;5093118;28;20442;-58
2023/07/06 08:06:06;;;;;;;3.07;2.30;;;20.50;64.40;;;;;;5093119;28;20546;-59
2023/07/06 08:08:33;;;;;;;6.87;3.03;;;20.60;64.00;;;;;;5093408;28;20438;-58
2023/07/06 08:11:03;;;;;;;3.00;2.40;;;20.70;63.30;;;;;;5092452;28;20999;-58
2023/07/06 08:13:31;;;;;;;3.47;2.20;;;20.80;62.60;;;;;;5092838;28;20916;-58
2023/07/06 08:15:58;;;;;;;4.30;2.90;;;21.00;62.10;;;;;;5093000;28;20450;-58
2023/07/06 08:18:25;;;;;;;4.47;2.83;;;21.10;61.60;;;;;;5092642;28;20959;-58
2023/07/06 08:20:53;;;;;;;3.60;2.37;;;21.20;61.50;;;;;;5092871;28;20470;-58
2023/07/06 08:23:21;;;;;;;2.53;2.33;;;21.30;61.40;;;;;;5092742;28;20508;-58
2023/07/06 08:25:51;;;;;;;2.60;2.40;;;21.50;61.20;;;;;;5092976;28;20494;-58
2023/07/06 08:28:21;;;;;;;5.23;2.40;;;21.60;61.00;;;;;;5093028;28;20453;-60
2023/07/06 08:30:51;;;;;;;2.87;2.57;;;21.60;60.40;;;;;;5092834;28;20870;-60
2023/07/06 08:33:21;;;;;;;3.83;2.47;;;21.60;60.30;;;;;;5092525;28;21032;-59
2023/07/06 08:35:49;;;;;;;3.23;2.70;;;21.80;60.30;;;;;;5093137;28;20444;-59
2023/07/06 08:38:16;;;;;;;4.23;2.27;;;22.00;60.00;;;;;;5093090;28;20544;-60
2023/07/06 08:40:46;;;;;;;8.83;2.70;;;22.00;58.80;;;;;;5093852;28;20848;-60
2023/07/06 08:43:18;;;;;;;3.50;2.20;;;22.10;58.60;;;;;;5093531;28;20452;-59
2023/07/06 08:45:49;;;;;;;5.33;2.40;;;22.20;57.90;;;;;;5093254;28;20527;-60
2023/07/06 08:48:19;;;;;;;4.73;2.43;;;22.10;57.20;;;;;;5093353;28;20437;-59
2023/07/06 08:50:51;;;;;;;2.83;2.30;;;21.90;57.50;;;;;;5093479;28;20476;-59
2023/07/06 08:53:21;;;;;;;4.90;2.30;;;22.10;57.50;;;;;;5093439;28;20613;-58
2023/07/06 08:55:50;;;;;;;3.80;2.40;;;22.50;56.90;;;;;;5093246;28;20447;-58
2023/07/06 08:58:23;;;;;;;3.10;2.53;;;22.70;56.10;;;;;;5096499;28;20813;-59
2023/07/06 09:00:50;;;;;;;4.10;2.00;;;22.70;55.70;;;;;;5097012;28;20472;-58
2023/07/06 09:03:18;;;;;;;3.90;1.60;;;22.80;55.50;;;;;;5096770;28;20449;-57
2023/07/06 09:05:48;;;;;;;4.10;2.40;;;22.90;55.30;;;;;;5096891;28;20468;-59
2023/07/06 09:08:18;;;;;;;2.43;2.23;;;23.10;55.10;;;;;;5097066;28;20433;-58
2023/07/06 09:10:47;;;;;;;3.40;2.30;;;23.20;54.50;;;;;;5096000;28;20997;-57
2023/07/06 09:13:22;;;;;;;2.67;2.07;;;23.40;53.80;;;;;;5096404;28;20557;-60
2023/07/06 09:15:54;;;;;;;4.20;2.10;;;23.40;53.10;;;;;;5096105;28;20433;-60
2023/07/06 09:18:22;;;;;;;3.23;2.50;;;23.30;52.30;;;;;;5096293;28;20434;-59
2023/07/06 09:20:50;;;;;;;2.50;1.70;;;23.20;52.40;;;;;;5096184;28;20469;-59
2023/07/06 09:23:18;;;;;;;3.23;2.10;;;23.30;51.90;;;;;;5096133;28;20452;-59
2023/07/06 09:25:48;;;;;;;3.47;2.10;;;23.20;51.70;;;;;;5095468;28;20933;-60
2023/07/06 09:28:18;;;;;;;3.83;1.87;;;23.20;52.00;;;;;;5095289;28;20950;-59
2023/07/06 09:30:45;;;;;;;6.03;2.20;;;23.40;51.00;;;;;;5095827;28;20439;-61
2023/07/06 09:33:19;;;;;;;2.90;1.80;;;23.60;50.20;;;;;;5095845;28;20478;-60
2023/07/06 09:35:50;;;;;;;2.43;2.03;;;23.70;49.50;;;;;;5095897;28;20431;-61
2023/07/06 09:38:17;;;;;;;2.47;2.17;;;23.80;49.30;;;;;;5095920;28;20441;-59
2023/07/06 09:40:44;;;;;;;1.87;1.70;;;23.80;49.10;;;;;;5095601;28;20477;-60
2023/07/06 09:43:23;;;;;;;5.90;1.80;;;23.80;49.30;;;;;;5095779;28;20497;-61
2023/07/06 09:45:52;;;;;;;2.90;2.40;;;23.70;49.00;;;;;;5095363;28;20431;-60
2023/07/06 09:48:32;;;;;;;4.50;1.97;;;23.60;49.10;;;;;;5096381;28;20471;-60
2023/07/06 09:51:08;;;;;;;2.33;1.70;;;23.70;49.10;;;;;;5096010;28;20470;-59
2023/07/06 09:53:41;;;;;;;5.27;2.10;;;23.90;49.10;;;;;;5095248;28;20482;-59
2023/07/06 09:56:11;;;;;;;3.40;2.00;;;24.30;48.70;;;;;;5095732;28;20430;-60
2023/07/06 09:58:41;;;;;;;2.80;2.30;;;24.60;48.20;;;;;;5095694;28;20431;-60
2023/07/06 10:01:15;;;;;;;3.07;2.00;;;24.80;48.00;;;;;;5095170;28;20474;-60
2023/07/06 10:03:52;;;;;;;3.17;1.87;;;24.80;47.00;;;;;;5096200;28;20436;-60
2023/07/06 10:06:37;;;;;;;3.93;2.00;;;24.50;46.40;;;;;;5096851;28;20419;-60
2023/07/06 10:09:14;;;;;;;3.90;2.00;;;24.30;46.30;;;;;;5097006;28;20427;-57
2023/07/06 10:11:49;;;;;;;5.07;2.03;;;24.10;46.00;;;;;;5096036;28;20486;-60
2023/07/06 10:14:25;;;;;;;2.53;1.30;;;23.90;45.90;;;;;;5095904;28;20977;-59
2023/07/06 10:17:03;;;;;;;2.40;1.83;;;23.70;46.00;;;;;;5095654;28;20525;-61
2023/07/06 10:19:36;;;;;;;5.33;3.00;;;23.50;46.00;;;;;;5095259;28;20434;-61
2023/07/06 10:22:18;;;;;;;2.77;1.77;;;23.50;46.30;;;;;;5095351;28;20464;-60
2023/07/06 10:24:52;;;;;;;1.83;1.40;;;23.60;46.40;;;;;;5097082;28;20519;-59
2023/07/06 10:27:25;;;;;;;2.20;1.50;;;23.70;46.20;;;;;;5095267;28;20430;-59
2023/07/06 10:29:57;;;;;;;4.40;1.90;;;23.80;46.30;;;;;;5095079;28;20443;-59
2023/07/06 10:32:28;;;;;;;2.80;1.70;;;24.00;46.20;;;;;;5094678;28;20478;-59
2023/07/06 10:35:01;;;;;;;2.73;1.57;;;24.10;46.00;;;;;;5094992;28;20434;-60
2023/07/06 10:37:31;;;;;;;3.97;1.50;;;23.90;45.90;;;;;;5095177;28;20430;-58
2023/07/06 10:40:10;;;;;;;2.93;1.63;;;23.80;45.50;;;;;;5095332;28;20470;-59
2023/07/06 10:42:43;;;;;;;2.20;1.53;;;23.90;45.80;;;;;;5090627;22;20494;-59
2023/07/06 10:45:23;;;;;;;2.63;1.27;;;24.10;45.00;;;;;;5036135;28;20434;-63
2023/07/06 10:47:51;;;;;;;4.77;2.07;;;24.10;43.70;;;;;;5036266;28;20430;-59
2023/07/06 10:50:27;;;;;;;2.30;1.40;;;23.90;43.50;;;;;;5035569;28;20445;-59
2023/07/06 10:53:17;;;;;;;1.50;1.37;;;23.80;43.70;;;;;;5036706;28;20982;-63
2023/07/06 10:55:58;;;;;;;2.37;1.63;;;23.80;44.20;;;;;;5035977;28;20473;-59
2023/07/06 10:58:27;;;;;;;1.93;1.60;;;23.90;44.50;;;;;;5035184;28;20525;-60
2023/07/06 11:00:56;;;;;;;3.20;1.97;;;24.10;44.60;;;;;;5035729;28;21014;-60
2023/07/06 11:03:27;;;;;;;2.60;1.70;;;24.10;44.50;;;;;;5036562;28;20476;-59
2023/07/06 11:06:05;;;;;;;3.43;1.30;;;24.20;44.60;;;;;;5036838;28;20436;-58
2023/07/06 11:09:03;;;;;;;2.33;1.67;;;24.20;44.10;;;;;;5036279;28;20429;-60
2023/07/06 11:11:34;;;;;;;2.80;1.80;;;24.00;44.30;;;;;;5036312;28;20961;-61
2023/07/06 11:14:19;;;;;;;3.33;1.73;;;23.80;44.60;;;;;;5037643;28;20990;-59
2023/07/06 11:16:51;;;;;;;3.27;1.83;;;23.60;45.00;;;;;;5037425;28;20434;-59
2023/07/06 11:19:27;;;;;;;2.10;1.90;;;23.50;45.30;;;;;;5036391;28;20444;-59
2023/07/06 11:21:58;;;;;;;6.83;2.10;;;23.40;45.60;;;;;;5035793;28;20464;-60
2023/07/06 11:24:33;;;;;;;3.13;2.00;;;23.50;45.90;;;;;;5035239;28;20433;-57
2023/07/06 11:27:04;;;;;;;2.50;1.60;;;23.90;45.40;;;;;;5034953;28;20472;-59
2023/07/06 11:29:33;;;;;;;2.30;1.43;;;24.10;44.90;;;;;;5034315;28;20920;-59
2023/07/06 11:32:18;;;;;;;1.33;1.20;;;24.50;44.30;;;;;;5034698;28;20470;-58
2023/07/06 11:34:59;;;;;;;3.00;1.20;;;25.20;42.90;;;;;;5034589;28;20467;-59
2023/07/06 11:37:38;;;;;;;3.40;1.90;;;25.50;41.50;;;;;;5034628;28;20437;-59
2023/07/06 11:40:19;;;;;;;2.57;1.50;;;25.60;40.80;;;;;;5035637;28;20769;-59
2023/07/06 11:43:02;;;;;;;6.23;1.70;;;25.40;41.20;;;;;;5035676;28;20540;-62
2023/07/06 11:45:39;;;;;;;1.87;1.50;;;25.10;42.20;;;;;;5035614;28;20436;-61
2023/07/06 11:48:19;;;;;;;1.30;1.20;;;24.90;42.70;;;;;;5036725;28;20443;-58
2023/07/06 11:50:46;;;;;;;2.17;1.87;;;24.80;42.20;;;;;;5035552;28;20440;-60
2023/07/06 11:53:29;;;;;;;1.67;1.00;;;24.70;42.00;;;;;;5036926;28;20505;-60
2023/07/06 11:56:05;;;;;;;2.20;1.37;;;24.80;41.10;;;;;;5037331;28;20435;-60
2023/07/06 11:58:43;;;;;;;2.23;1.30;;;24.90;40.20;;;;;;5036953;28;20471;-60
2023/07/06 12:01:21;;;;;;;2.37;1.40;;;25.20;39.50;;;;;;5038114;28;20891;-60
2023/07/06 12:03:48;;;;;;;2.30;1.87;;;25.30;38.80;;;;;;5036998;28;20490;-59
2023/07/06 12:06:17;;;;;;;2.93;2.23;;;25.20;38.90;;;;;;5037102;28;20553;-60
2023/07/06 12:08:46;;;;;;;2.63;1.30;;;25.00;39.30;;;;;;5037148;28;20454;-60
2023/07/06 12:11:19;;;;;;;2.43;1.50;;;24.70;40.00;;;;;;5036851;28;20448;-58
2023/07/06 12:13:52;;;;;;;2.17;1.60;;;24.80;40.60;;;;;;5035247;28;21054;-60
2023/07/06 12:16:21;;;;;;;2.80;1.43;;;25.10;40.70;;;;;;5035637;28;20437;-59
2023/07/06 12:19:01;;;;;;;2.10;1.63;;;25.30;40.40;;;;;;5034796;28;20450;-59
2023/07/06 12:21:31;;;;;;;3.20;1.80;;;25.70;39.10;;;;;;5035140;28;20545;-61
2023/07/06 12:23:59;;;;;;;3.30;1.60;;;25.80;38.50;;;;;;5035545;28;20439;-58
2023/07/06 12:26:29;;;;;;;3.37;1.57;;;26.10;38.50;;;;;;5035275;28;20450;-59
2023/07/06 12:28:57;;;;;;;3.50;2.37;;;26.50;38.20;;;;;;5036290;28;20494;-59
2023/07/06 12:31:25;;;;;;;3.57;1.50;;;26.60;38.60;;;;;;5035451;28;20446;-59
2023/07/06 12:33:54;;;;;;;5.43;1.60;;;26.30;38.90;;;;;;5038717;28;20994;-59
2023/07/06 12:36:23;;;;;;;1.93;1.73;;;25.80;39.80;;;;;;5038567;28;20447;-59
2023/07/06 12:38:51;;;;;;;2.10;1.40;;;25.70;40.60;;;;;;5037952;28;20446;-59
2023/07/06 12:41:20;;;;;;;2.50;1.83;;;25.90;40.10;;;;;;5038569;28;20448;-59
2023/07/06 12:43:49;;;;;;;1.80;1.37;;;26.10;39.30;;;;;;5038826;28;20526;-59
2023/07/06 12:46:21;;;;;;;1.87;1.53;;;26.10;38.90;;;;;;5043009;28;20470;-58
2023/07/06 12:48:51;;;;;;;2.83;1.53;;;26.10;38.80;;;;;;5042099;28;20431;-59
2023/07/06 12:51:23;;;;;;;1.57;1.47;;;25.90;39.20;;;;;;5042309;28;20473;-60
2023/07/06 12:53:50;;;;;;;3.57;1.77;;;25.70;39.70;;;;;;5042011;28;20905;-58
2023/07/06 12:56:20;;;;;;;1.93;1.60;;;25.50;40.30;;;;;;5041784;28;20454;-59
2023/07/06 12:58:57;;;;;;;2.73;1.70;;;25.40;40.70;;;;;;5039137;28;20456;-60
2023/07/06 13:01:31;;;;;;;2.60;1.73;;;25.40;40.30;;;;;;5039127;28;20783;-59